createdAt,value
2022-08-14T00:00:36.879Z,0.20
2022-08-14T00:03:40.803Z,0.17
2022-08-14T00:06:43.045Z,0.20
2022-08-14T00:09:55.457Z,0.20
2022-08-14T00:13:06.822Z,0.10
2022-08-14T00:16:14.152Z,0.20
2022-08-14T00:19:35.741Z,0.10
2022-08-14T00:22:56.207Z,0.10
2022-08-14T00:26:06.455Z,0.10
2022-08-14T00:29:10.052Z,0.17
2022-08-14T00:33:01.689Z,0.20
2022-08-14T00:36:37.694Z,0.20
2022-08-14T00:38:57.037Z,0.10
2022-08-14T00:41:58.754Z,0.10
2022-08-14T00:45:00.360Z,0.10
2022-08-14T00:48:02.476Z,0.13
2022-08-14T00:51:06.753Z,0.20
2022-08-14T00:54:16.703Z,0.20
2022-08-14T00:57:29.562Z,0.10
2022-08-14T01:00:37.385Z,0.15
2022-08-14T01:03:52.817Z,0.10
2022-08-14T01:06:55.548Z,0.10
2022-08-14T01:09:59.133Z,0.20
2022-08-14T01:13:01.457Z,0.13
2022-08-14T01:16:08.001Z,0.20
2022-08-14T01:19:28.713Z,0.10
2022-08-14T01:22:30.329Z,0.10
2022-08-14T01:25:33.272Z,0.10
2022-08-14T01:28:56.174Z,0.13
2022-08-14T01:32:01.797Z,0.10
2022-08-14T01:35:19.830Z,0.10
2022-08-14T01:38:34.404Z,0.10
2022-08-14T01:41:40.405Z,0.10
2022-08-14T01:44:43.165Z,0.20
2022-08-14T01:47:51.553Z,0.10
2022-08-14T01:50:53.119Z,0.10
2022-08-14T01:54:22.137Z,0.10
2022-08-14T01:57:24.782Z,0.20
2022-08-14T02:00:38.959Z,0.20
2022-08-14T02:03:41.288Z,0.20
2022-08-14T02:06:54.184Z,0.15
2022-08-14T02:09:56.213Z,0.17
2022-08-14T02:12:59.583Z,0.10
2022-08-14T02:16:01.255Z,0.10
2022-08-14T02:19:27.401Z,0.15
2022-08-14T02:22:33.982Z,0.10
2022-08-14T02:25:36.132Z,0.10
2022-08-14T02:28:57.547Z,0.20
2022-08-14T02:32:01.036Z,0.20
2022-08-14T02:35:06.836Z,0.10
2022-08-14T02:38:11.820Z,0.20
2022-08-14T02:41:30.346Z,0.20
2022-08-14T02:44:40.325Z,0.10
2022-08-14T02:47:41.940Z,0.10
2022-08-14T02:50:51.372Z,0.10
2022-08-14T02:53:54.856Z,0.13
2022-08-14T02:57:16.737Z,0.10
2022-08-14T03:00:19.916Z,0.10
2022-08-14T03:03:23.930Z,0.20
2022-08-14T03:06:49.030Z,0.10
2022-08-14T03:10:25.205Z,0.20
2022-08-14T03:13:13.809Z,0.10
2022-08-14T03:16:26.878Z,0.10
2022-08-14T03:19:28.769Z,0.15
2022-08-14T03:22:30.408Z,0.10
2022-08-14T03:25:37.378Z,0.20
2022-08-14T03:28:41.376Z,0.15
2022-08-14T03:31:44.137Z,0.20
2022-08-14T03:34:55.468Z,0.13
2022-08-14T03:39:11.905Z,0.20
2022-08-14T03:41:33.389Z,0.15
2022-08-14T03:45:19.257Z,0.10
2022-08-14T03:47:58.655Z,0.10
2022-08-14T03:51:01.438Z,0.17
2022-08-14T03:54:08.345Z,0.10
2022-08-14T03:57:12.623Z,0.20
2022-08-14T04:00:43.108Z,0.10
2022-08-14T04:03:37.397Z,0.20
2022-08-14T04:06:45.224Z,0.20
2022-08-14T04:09:50.285Z,0.10
2022-08-14T04:12:55.797Z,0.17
2022-08-14T04:16:02.447Z,0.10
2022-08-14T04:19:08.646Z,0.20
2022-08-14T04:22:10.185Z,0.20
2022-08-14T04:25:13.319Z,0.15
2022-08-14T04:29:07.604Z,0.20
2022-08-14T04:33:00.412Z,0.20
2022-08-14T04:35:01.669Z,0.20
2022-08-14T04:38:37.183Z,0.10
2022-08-14T04:41:58.361Z,0.10
2022-08-14T04:45:01.293Z,0.10
2022-08-14T04:48:39.268Z,0.20
2022-08-14T04:51:46.990Z,0.10
2022-08-14T04:54:57.947Z,0.10
2022-08-14T04:57:59.636Z,0.10
2022-08-14T05:01:12.830Z,0.20
2022-08-14T05:04:21.794Z,0.10
2022-08-14T05:07:46.942Z,0.17
2022-08-14T05:10:52.000Z,0.15
2022-08-14T05:14:34.456Z,0.10
2022-08-14T05:17:18.300Z,0.20
2022-08-14T05:21:57.919Z,0.20
2022-08-14T05:23:42.274Z,0.22
2022-08-14T05:26:48.058Z,0.20
2022-08-14T05:29:50.482Z,0.20
2022-08-14T05:32:52.342Z,0.10
2022-08-14T05:36:01.158Z,0.17
2022-08-14T05:39:04.321Z,0.20
2022-08-14T05:42:10.181Z,0.20
2022-08-14T05:45:24.157Z,0.25
2022-08-14T05:48:33.701Z,0.30
2022-08-14T05:51:38.796Z,0.20
2022-08-14T05:54:40.428Z,0.20
2022-08-14T05:57:54.469Z,0.10
2022-08-14T06:00:57.485Z,0.20
2022-08-14T06:03:59.200Z,0.20
2022-08-14T06:07:00.801Z,0.20
2022-08-14T06:10:06.217Z,0.20
2022-08-14T06:13:07.950Z,0.20
2022-08-14T06:16:11.205Z,0.20
2022-08-14T06:19:15.548Z,0.30
2022-08-14T06:22:20.494Z,0.10
2022-08-14T06:25:25.076Z,0.20
2022-08-14T06:28:28.398Z,0.15
2022-08-14T06:31:30.306Z,0.22
2022-08-14T06:35:10.329Z,0.30
2022-08-14T06:37:56.829Z,0.30
2022-08-14T06:40:58.712Z,0.20
2022-08-14T06:44:00.326Z,0.20
2022-08-14T06:47:05.389Z,0.30
2022-08-14T06:50:10.456Z,0.20
2022-08-14T06:53:14.678Z,0.20
2022-08-14T06:56:16.736Z,0.28
2022-08-14T06:59:19.637Z,0.20
2022-08-14T07:02:43.584Z,0.20
2022-08-14T07:05:55.922Z,0.20
2022-08-14T07:08:59.958Z,0.20
2022-08-14T07:12:01.729Z,0.20
2022-08-14T07:15:05.067Z,0.30
2022-08-14T07:18:08.839Z,0.22
2022-08-14T07:21:10.771Z,0.30
2022-08-14T07:24:21.770Z,0.20
2022-08-14T07:27:28.266Z,0.20
2022-08-14T07:30:35.506Z,0.20
2022-08-14T07:33:37.040Z,0.10
2022-08-14T07:36:38.618Z,0.20
2022-08-14T07:40:01.650Z,0.17
2022-08-14T07:43:14.399Z,0.10
2022-08-14T07:46:21.399Z,0.20
2022-08-14T07:49:33.210Z,0.20
2022-08-14T07:52:35.052Z,0.30
2022-08-14T07:55:37.659Z,0.30
2022-08-14T07:58:51.548Z,0.30
2022-08-14T08:01:53.628Z,0.30
2022-08-14T08:05:00.652Z,0.30
2022-08-14T08:08:03.783Z,0.30
2022-08-14T08:11:14.976Z,0.20
2022-08-14T08:14:18.224Z,0.28
2022-08-14T08:17:20.502Z,0.30
2022-08-14T08:20:27.263Z,0.30
2022-08-14T08:23:40.069Z,0.20
2022-08-14T08:26:45.137Z,0.30
2022-08-14T08:29:50.970Z,0.30
2022-08-14T08:32:55.270Z,0.30
2022-08-14T08:36:03.496Z,0.30
2022-08-14T08:39:17.065Z,0.20
2022-08-14T08:42:31.222Z,0.20
2022-08-14T08:45:39.777Z,0.20
2022-08-14T08:48:53.949Z,0.20
2022-08-14T08:52:04.358Z,0.20
2022-08-14T08:55:06.573Z,0.20
2022-08-14T08:58:20.277Z,0.28
2022-08-14T09:01:33.504Z,0.40
2022-08-14T09:04:45.221Z,0.25
2022-08-14T09:07:56.650Z,0.35
2022-08-14T09:10:59.652Z,0.40
2022-08-14T09:14:02.433Z,0.30
2022-08-14T09:17:07.144Z,0.30
2022-08-14T09:20:11.910Z,0.28
2022-08-14T09:23:16.842Z,0.20
2022-08-14T09:26:21.098Z,0.30
2022-08-14T09:29:23.752Z,0.20
2022-08-14T09:32:59.091Z,0.30
2022-08-14T09:36:18.472Z,0.43
2022-08-14T09:39:55.832Z,0.47
2022-08-14T09:43:07.482Z,0.60
2022-08-14T09:46:09.649Z,0.30
2022-08-14T09:49:16.724Z,0.30
2022-08-14T09:52:23.791Z,0.40
2022-08-14T09:55:42.608Z,0.30
2022-08-14T09:58:47.362Z,0.50
2022-08-14T10:01:53.099Z,0.45
2022-08-14T10:05:10.209Z,0.50
2022-08-14T10:08:26.487Z,0.50
2022-08-14T10:11:37.911Z,0.80
2022-08-14T10:14:45.095Z,0.70
2022-08-14T10:18:08.056Z,0.65
2022-08-14T10:21:18.069Z,0.50
2022-08-14T10:24:37.299Z,0.50
2022-08-14T10:27:39.430Z,0.70
2022-08-14T10:30:42.904Z,0.50
2022-08-14T10:33:50.806Z,0.50
2022-08-14T10:37:04.011Z,0.50
2022-08-14T10:40:37.385Z,0.70
2022-08-14T10:43:42.480Z,0.70
2022-08-14T10:47:39.329Z,0.70
2022-08-14T10:50:15.858Z,0.88
2022-08-14T10:53:29.730Z,0.75
2022-08-14T10:56:35.775Z,0.57
2022-08-14T11:00:14.377Z,0.70
2022-08-14T11:03:35.714Z,0.60
2022-08-14T11:06:53.056Z,0.45
2022-08-14T11:10:04.811Z,0.70
2022-08-14T11:13:07.285Z,0.50
2022-08-14T11:16:09.825Z,0.40
2022-08-14T11:19:13.634Z,0.50
2022-08-14T11:22:55.729Z,1.00
2022-08-14T11:25:53.588Z,0.90
2022-08-14T11:28:57.489Z,0.90
2022-08-14T11:32:02.354Z,1.10
2022-08-14T11:35:04.356Z,0.90
2022-08-14T11:38:08.423Z,1.00
2022-08-14T11:41:11.449Z,0.70
2022-08-14T11:44:13.276Z,0.80
2022-08-14T11:47:20.700Z,0.90
2022-08-14T11:50:37.230Z,0.90
2022-08-14T11:53:42.332Z,0.82
2022-08-14T11:56:46.136Z,0.80
2022-08-14T11:59:47.947Z,1.08
2022-08-14T12:03:02.576Z,0.90
2022-08-14T12:06:28.982Z,0.80
2022-08-14T12:09:38.685Z,0.80
2022-08-14T12:12:45.045Z,0.90
2022-08-14T12:16:06.614Z,1.00
2022-08-14T12:19:12.942Z,0.80
2022-08-14T12:22:29.443Z,0.88
2022-08-14T12:25:34.937Z,0.95
2022-08-14T12:28:59.715Z,0.73
2022-08-14T12:32:06.677Z,0.60
2022-08-14T12:35:11.225Z,0.60
2022-08-14T12:38:19.504Z,0.60
2022-08-14T12:41:28.228Z,0.68
2022-08-14T12:44:42.976Z,0.63
2022-08-14T12:47:45.592Z,0.60
2022-08-14T12:50:53.307Z,0.70
2022-08-14T12:53:59.617Z,0.70
2022-08-14T12:57:08.288Z,0.50
2022-08-14T13:00:22.939Z,0.75
2022-08-14T13:03:27.989Z,0.50
2022-08-14T13:06:29.960Z,0.50
2022-08-14T13:09:36.612Z,0.70
2022-08-14T13:13:02.942Z,0.70
2022-08-14T13:16:05.287Z,0.68
2022-08-14T13:19:24.352Z,0.60
2022-08-14T13:22:33.385Z,0.50
2022-08-14T13:25:37.748Z,0.60
2022-08-14T13:29:02.754Z,0.85
2022-08-14T13:32:05.839Z,0.70
2022-08-14T13:35:11.037Z,0.60
2022-08-14T13:38:25.605Z,0.57
2022-08-14T13:41:36.109Z,0.50
2022-08-14T13:44:42.581Z,0.70
2022-08-14T13:47:46.657Z,1.05
2022-08-14T13:50:55.420Z,1.00
2022-08-14T13:54:10.957Z,0.90
2022-08-14T13:57:17.739Z,1.35
2022-08-14T14:00:32.522Z,1.27
2022-08-14T14:03:38.191Z,1.13
2022-08-14T14:06:40.776Z,0.90
2022-08-14T14:09:52.703Z,0.80
2022-08-14T14:12:56.161Z,0.95
2022-08-14T14:16:03.799Z,0.80
2022-08-14T14:19:09.379Z,0.68
2022-08-14T14:22:13.423Z,0.57
2022-08-14T14:25:45.921Z,0.60
2022-08-14T14:28:57.119Z,0.50
2022-08-14T14:32:00.438Z,0.50
2022-08-14T14:35:02.945Z,0.45
2022-08-14T14:38:07.020Z,0.40
2022-08-14T14:41:10.594Z,0.30
2022-08-14T14:44:15.936Z,0.40
2022-08-14T14:47:22.528Z,0.40
2022-08-14T14:50:25.003Z,0.30
2022-08-14T14:53:28.605Z,0.30
2022-08-14T14:56:47.418Z,0.30
2022-08-14T14:59:53.799Z,0.30
2022-08-14T15:02:57.831Z,0.30
2022-08-14T15:06:02.179Z,0.20
2022-08-14T15:09:08.886Z,0.30
2022-08-14T15:12:27.930Z,0.35
2022-08-14T15:15:37.808Z,0.40
2022-08-14T15:18:46.917Z,0.40
2022-08-14T15:21:51.167Z,0.30
2022-08-14T15:24:53.110Z,0.30
2022-08-14T15:27:56.317Z,0.25
2022-08-14T15:30:59.204Z,0.30
2022-08-14T15:34:43.957Z,0.30
2022-08-14T15:37:42.233Z,0.30
2022-08-14T15:40:44.264Z,0.20
2022-08-14T15:43:54.301Z,0.20
2022-08-14T15:46:59.916Z,0.28
2022-08-14T15:50:08.689Z,0.40
2022-08-14T15:53:12.280Z,0.60
2022-08-14T15:56:20.858Z,0.70
2022-08-14T15:59:58.539Z,0.70
2022-08-14T16:03:00.725Z,0.70
2022-08-14T16:06:11.078Z,0.60
2022-08-14T16:09:17.412Z,0.60
2022-08-14T16:12:20.317Z,0.50
2022-08-14T16:15:45.369Z,0.40
2022-08-14T16:18:59.007Z,0.60
2022-08-14T16:25:34.478Z,0.90
2022-08-14T16:28:37.209Z,0.80
2022-08-14T16:31:39.936Z,0.65
2022-08-14T16:34:49.143Z,0.85
2022-08-14T16:37:56.568Z,0.82
2022-08-14T16:40:25.176Z,0.75
2022-08-14T16:41:23.337Z,0.80
2022-08-14T16:44:41.077Z,1.08
2022-08-14T16:47:47.872Z,0.80
2022-08-14T16:50:52.455Z,0.82
2022-08-14T16:53:54.656Z,1.10
2022-08-14T16:57:12.794Z,0.90
2022-08-14T17:00:43.920Z,0.80
2022-08-14T17:03:53.145Z,1.00
2022-08-14T17:06:57.471Z,0.70
2022-08-14T17:10:09.702Z,0.60
2022-08-14T17:13:59.738Z,0.98
2022-08-14T17:16:56.426Z,1.00
2022-08-14T17:20:02.273Z,0.90
2022-08-14T17:23:11.345Z,0.80
2022-08-14T17:26:45.651Z,0.70
2022-08-14T17:33:23.164Z,0.45
2022-08-14T17:36:26.529Z,0.50
2022-08-14T17:39:40.220Z,0.50
2022-08-14T17:42:55.713Z,0.50
2022-08-14T17:46:04.913Z,0.40
2022-08-14T17:49:16.255Z,0.40
2022-08-14T17:52:34.106Z,0.40
2022-08-14T17:56:01.781Z,0.50
2022-08-14T17:59:05.740Z,0.30
2022-08-14T18:02:09.683Z,0.32
2022-08-14T18:05:23.764Z,0.30
2022-08-14T18:08:43.734Z,0.30
2022-08-14T18:11:46.733Z,0.30
2022-08-14T18:14:52.910Z,0.40
2022-08-14T18:17:58.047Z,0.30
2022-08-14T18:21:42.319Z,0.30
2022-08-14T18:24:29.455Z,0.30
2022-08-14T18:27:42.075Z,0.57
2022-08-14T18:30:58.719Z,0.40
2022-08-14T18:34:32.022Z,0.38
2022-08-14T18:37:36.611Z,0.30
2022-08-14T18:40:40.556Z,0.30
2022-08-14T18:43:58.945Z,0.40
2022-08-14T18:47:15.992Z,0.30
2022-08-14T18:50:27.480Z,0.30
2022-08-14T18:53:59.454Z,0.30
2022-08-14T18:57:03.818Z,0.30
2022-08-14T19:00:32.808Z,0.20
2022-08-14T19:03:36.461Z,0.40
2022-08-14T19:06:55.980Z,0.30
2022-08-14T19:10:03.516Z,0.30
2022-08-14T19:13:12.382Z,0.20
2022-08-14T19:16:22.814Z,0.20
2022-08-14T19:19:38.257Z,0.20
2022-08-14T19:22:41.309Z,0.30
2022-08-14T19:25:54.313Z,0.20
2022-08-14T19:28:56.554Z,0.20
2022-08-14T19:32:02.997Z,0.25
2022-08-14T19:35:49.501Z,0.30
2022-08-14T19:39:00.108Z,0.28
2022-08-14T19:42:03.323Z,0.20
2022-08-14T19:45:15.379Z,0.30
2022-08-14T19:48:16.937Z,0.20
2022-08-14T19:51:18.693Z,0.20
2022-08-14T19:54:34.880Z,0.40
2022-08-14T19:57:36.850Z,0.20
2022-08-14T20:00:52.762Z,0.30
2022-08-14T20:03:59.908Z,0.30
2022-08-14T20:07:06.431Z,0.40
2022-08-14T20:11:08.261Z,0.30
2022-08-14T20:14:10.341Z,0.30
2022-08-14T20:17:19.367Z,0.30
2022-08-14T20:20:30.872Z,0.30
2022-08-14T20:23:43.615Z,0.40
2022-08-14T20:27:34.103Z,0.30
2022-08-14T20:30:37.443Z,0.30
2022-08-14T20:33:48.652Z,0.22
2022-08-14T20:37:00.836Z,0.30
2022-08-14T20:40:23.329Z,0.28
2022-08-14T20:43:52.868Z,0.30
2022-08-14T20:47:00.965Z,0.30
2022-08-14T20:50:21.237Z,0.38
2022-08-14T20:53:28.940Z,0.40
2022-08-14T20:56:41.683Z,0.30
2022-08-14T20:59:57.359Z,0.30
2022-08-14T21:02:59.477Z,0.30
2022-08-14T21:06:17.264Z,0.20
2022-08-14T21:10:03.356Z,0.28
2022-08-14T21:12:55.559Z,0.13
2022-08-14T21:16:33.442Z,0.20
2022-08-14T21:19:33.032Z,0.20
2022-08-14T21:22:37.586Z,0.20
2022-08-14T21:25:42.537Z,0.38
2022-08-14T21:28:46.003Z,0.30
2022-08-14T21:31:55.670Z,0.30
2022-08-14T21:35:16.217Z,0.30
2022-08-14T21:38:20.517Z,0.40
2022-08-14T21:41:42.386Z,0.30
2022-08-14T21:44:53.450Z,0.40
2022-08-14T21:48:02.304Z,0.30
2022-08-14T21:51:54.917Z,0.30
2022-08-14T21:54:49.803Z,0.30
2022-08-14T21:58:51.713Z,0.30
2022-08-14T22:01:23.853Z,0.30
2022-08-14T22:04:33.653Z,0.47
2022-08-14T22:07:38.894Z,0.47
2022-08-14T22:10:44.755Z,0.40
2022-08-14T22:13:48.869Z,0.45
2022-08-14T22:17:02.257Z,0.40
2022-08-14T22:20:16.554Z,0.30
2022-08-14T22:23:18.736Z,0.30
2022-08-14T22:26:21.791Z,0.30
2022-08-14T22:29:23.940Z,0.20
2022-08-14T22:32:55.948Z,0.40
2022-08-14T22:35:56.522Z,0.40
2022-08-14T22:38:58.495Z,0.40
2022-08-14T22:42:02.080Z,0.28
2022-08-14T22:45:22.745Z,0.20
2022-08-14T22:48:25.169Z,0.40
2022-08-14T22:51:32.404Z,0.30
2022-08-14T22:54:51.878Z,0.30
2022-08-14T22:57:55.376Z,0.32
2022-08-14T23:01:01.090Z,0.30
2022-08-14T23:04:04.530Z,0.30
2022-08-14T23:07:21.998Z,0.30
2022-08-14T23:10:31.930Z,0.30
2022-08-14T23:13:39.703Z,0.30
2022-08-14T23:16:42.513Z,0.30
2022-08-14T23:19:44.764Z,0.40
2022-08-14T23:22:51.203Z,0.30
2022-08-14T23:25:59.387Z,0.40
2022-08-14T23:29:03.361Z,0.35
2022-08-14T23:32:06.170Z,0.30
2022-08-14T23:35:27.140Z,0.30
2022-08-14T23:38:30.504Z,0.30
2022-08-14T23:41:46.452Z,0.30
2022-08-14T23:44:55.699Z,0.30
2022-08-14T23:47:59.484Z,0.20
2022-08-14T23:51:02.953Z,0.30
2022-08-14T23:54:05.591Z,0.22
2022-08-14T23:57:30.748Z,0.30
